sensor_id;sensor_type;location;lat;lon;timestamp;pressure;altitude;pressure_sealevel;temperature;humidity
62592;BME280;48659;41.622;2.276;2023-03-23T00:00:50;99762.19;;;15.41;50.93
62592;BME280;48659;41.622;2.276;2023-03-23T00:03:18;99757.88;;;15.49;51.06
62592;BME280;48659;41.622;2.276;2023-03-23T00:05:45;99759.74;;;15.65;51.50
62592;BME280;48659;41.622;2.276;2023-03-23T00:08:13;99756.56;;;14.22;52.63
62592;BME280;48659;41.622;2.276;2023-03-23T00:10:40;99757.82;;;15.29;51.68
62592;BME280;48659;41.622;2.276;2023-03-23T00:13:08;99758.15;;;15.58;50.16
62592;BME280;48659;41.622;2.276;2023-03-23T00:15:36;99759.33;;;15.45;50.42
62592;BME280;48659;41.622;2.276;2023-03-23T00:18:03;99757.44;;;15.47;50.46
62592;BME280;48659;41.622;2.276;2023-03-23T00:20:31;99752.71;;;15.06;51.63
62592;BME280;48659;41.622;2.276;2023-03-23T00:22:59;99752.85;;;15.37;51.00
62592;BME280;48659;41.622;2.276;2023-03-23T00:25:26;99754.40;;;15.35;51.27
62592;BME280;48659;41.622;2.276;2023-03-23T00:27:54;99758.36;;;15.27;50.30
62592;BME280;48659;41.622;2.276;2023-03-23T00:30:22;99761.16;;;15.49;50.66
62592;BME280;48659;41.622;2.276;2023-03-23T00:32:57;99758.76;;;14.92;51.38
62592;BME280;48659;41.622;2.276;2023-03-23T00:35:25;99752.84;;;15.58;50.80
62592;BME280;48659;41.622;2.276;2023-03-23T00:37:52;99753.48;;;15.20;51.09
62592;BME280;48659;41.622;2.276;2023-03-23T00:40:20;99753.57;;;14.91;51.18
62592;BME280;48659;41.622;2.276;2023-03-23T00:42:47;99750.60;;;15.59;50.89
62592;BME280;48659;41.622;2.276;2023-03-23T00:45:14;99750.64;;;15.83;49.88
62592;BME280;48659;41.622;2.276;2023-03-23T00:47:42;99750.78;;;15.73;50.59
62592;BME280;48659;41.622;2.276;2023-03-23T00:50:09;99746.59;;;14.54;50.81
62592;BME280;48659;41.622;2.276;2023-03-23T00:52:37;99742.96;;;15.32;51.15
62592;BME280;48659;41.622;2.276;2023-03-23T00:55:05;99739.30;;;15.31;50.66
62592;BME280;48659;41.622;2.276;2023-03-23T00:57:32;99738.08;;;15.82;51.08
62592;BME280;48659;41.622;2.276;2023-03-23T01:00:00;99735.90;;;14.28;52.82
62592;BME280;48659;41.622;2.276;2023-03-23T01:02:27;99734.54;;;14.77;52.40
62592;BME280;48659;41.622;2.276;2023-03-23T01:04:55;99736.03;;;14.73;51.38
62592;BME280;48659;41.622;2.276;2023-03-23T01:07:23;99735.00;;;14.67;52.51
62592;BME280;48659;41.622;2.276;2023-03-23T01:09:51;99728.19;;;14.95;51.93
62592;BME280;48659;41.622;2.276;2023-03-23T01:12:19;99723.33;;;14.60;52.60
62592;BME280;48659;41.622;2.276;2023-03-23T01:14:47;99726.35;;;14.82;52.16
62592;BME280;48659;41.622;2.276;2023-03-23T01:17:14;99729.15;;;14.62;53.67
62592;BME280;48659;41.622;2.276;2023-03-23T01:19:42;99723.52;;;14.74;52.58
62592;BME280;48659;41.622;2.276;2023-03-23T01:22:10;99715.62;;;14.64;52.68
62592;BME280;48659;41.622;2.276;2023-03-23T01:24:38;99710.13;;;15.14;52.67
62592;BME280;48659;41.622;2.276;2023-03-23T01:27:05;99706.13;;;14.47;53.08
62592;BME280;48659;41.622;2.276;2023-03-23T01:29:33;99702.62;;;14.87;52.73
62592;BME280;48659;41.622;2.276;2023-03-23T01:32:02;99692.32;;;14.38;53.16
62592;BME280;48659;41.622;2.276;2023-03-23T01:34:29;99690.01;;;14.82;52.90
62592;BME280;48659;41.622;2.276;2023-03-23T01:36:57;99691.78;;;14.42;52.71
62592;BME280;48659;41.622;2.276;2023-03-23T01:39:24;99685.14;;;14.68;52.91
62592;BME280;48659;41.622;2.276;2023-03-23T01:41:52;99674.81;;;14.31;52.68
62592;BME280;48659;41.622;2.276;2023-03-23T01:45:34;99668.16;;;14.97;53.70
62592;BME280;48659;41.622;2.276;2023-03-23T01:48:06;99656.55;;;14.01;53.69
62592;BME280;48659;41.622;2.276;2023-03-23T01:50:40;99654.18;;;14.54;53.78
62592;BME280;48659;41.622;2.276;2023-03-23T01:53:11;99662.00;;;13.62;54.78
62592;BME280;48659;41.622;2.276;2023-03-23T01:55:41;99657.14;;;14.51;52.77
62592;BME280;48659;41.622;2.276;2023-03-23T01:58:11;99657.92;;;14.22;53.20
62592;BME280;48659;41.622;2.276;2023-03-23T02:00:39;99654.37;;;13.89;53.97
62592;BME280;48659;41.622;2.276;2023-03-23T02:03:07;99661.24;;;13.52;54.91
62592;BME280;48659;41.622;2.276;2023-03-23T02:05:38;99662.44;;;13.59;55.22
62592;BME280;48659;41.622;2.276;2023-03-23T02:08:07;99664.09;;;13.20;55.59
62592;BME280;48659;41.622;2.276;2023-03-23T02:10:37;99657.57;;;14.15;54.28
62592;BME280;48659;41.622;2.276;2023-03-23T02:13:07;99655.75;;;13.93;53.82
62592;BME280;48659;41.622;2.276;2023-03-23T02:15:44;99650.64;;;14.72;53.73
62592;BME280;48659;41.622;2.276;2023-03-23T02:18:28;99645.84;;;14.37;53.18
62592;BME280;48659;41.622;2.276;2023-03-23T02:21:30;99641.69;;;13.73;53.89
62592;BME280;48659;41.622;2.276;2023-03-23T02:24:22;99641.82;;;13.84;54.56
62592;BME280;48659;41.622;2.276;2023-03-23T02:27:00;99639.59;;;13.55;54.38
62592;BME280;48659;41.622;2.276;2023-03-23T02:30:22;99642.05;;;14.01;54.60
62592;BME280;48659;41.622;2.276;2023-03-23T02:33:10;99636.47;;;13.54;55.01
62592;BME280;48659;41.622;2.276;2023-03-23T02:35:43;99632.49;;;13.99;54.66
62592;BME280;48659;41.622;2.276;2023-03-23T02:38:15;99625.65;;;12.97;54.78
62592;BME280;48659;41.622;2.276;2023-03-23T02:40:45;99631.19;;;14.82;53.37
62592;BME280;48659;41.622;2.276;2023-03-23T02:43:16;99633.37;;;14.69;53.70
62592;BME280;48659;41.622;2.276;2023-03-23T02:45:46;99635.18;;;14.63;53.84
62592;BME280;48659;41.622;2.276;2023-03-23T02:48:15;99637.78;;;14.29;53.49
62592;BME280;48659;41.622;2.276;2023-03-23T02:50:47;99639.25;;;14.64;53.65
62592;BME280;48659;41.622;2.276;2023-03-23T02:53:19;99643.01;;;14.85;53.26
62592;BME280;48659;41.622;2.276;2023-03-23T02:55:48;99652.97;;;13.71;55.26
62592;BME280;48659;41.622;2.276;2023-03-23T02:58:17;99659.20;;;14.57;53.76
62592;BME280;48659;41.622;2.276;2023-03-23T03:00:45;99664.26;;;12.68;56.80
62592;BME280;48659;41.622;2.276;2023-03-23T03:03:15;99658.38;;;12.39;58.40
62592;BME280;48659;41.622;2.276;2023-03-23T03:05:51;99644.87;;;11.97;59.29
62592;BME280;48659;41.622;2.276;2023-03-23T03:08:26;99640.86;;;12.70;57.05
62592;BME280;48659;41.622;2.276;2023-03-23T03:11:01;99645.22;;;11.95;57.61
62592;BME280;48659;41.622;2.276;2023-03-23T03:13:35;99643.85;;;12.87;58.77
62592;BME280;48659;41.622;2.276;2023-03-23T03:16:10;99636.20;;;13.78;55.29
62592;BME280;48659;41.622;2.276;2023-03-23T03:18:44;99638.66;;;13.52;55.49
62592;BME280;48659;41.622;2.276;2023-03-23T03:21:17;99638.24;;;13.37;55.63
62592;BME280;48659;41.622;2.276;2023-03-23T03:23:45;99635.26;;;13.43;55.01
62592;BME280;48659;41.622;2.276;2023-03-23T03:26:14;99641.42;;;11.58;56.61
62592;BME280;48659;41.622;2.276;2023-03-23T03:28:42;99637.43;;;11.88;58.53
62592;BME280;48659;41.622;2.276;2023-03-23T03:31:11;99637.98;;;10.50;57.86
62592;BME280;48659;41.622;2.276;2023-03-23T03:33:38;99635.59;;;10.82;60.05
62592;BME280;48659;41.622;2.276;2023-03-23T03:36:07;99630.80;;;11.02;59.98
62592;BME280;48659;41.622;2.276;2023-03-23T03:38:42;99639.67;;;10.91;59.29
62592;BME280;48659;41.622;2.276;2023-03-23T03:41:10;99642.51;;;9.68;62.14
62592;BME280;48659;41.622;2.276;2023-03-23T03:43:37;99651.82;;;8.37;68.14
62592;BME280;48659;41.622;2.276;2023-03-23T03:46:04;99640.78;;;9.91;62.88
62592;BME280;48659;41.622;2.276;2023-03-23T03:48:33;99635.32;;;8.98;63.91
62592;BME280;48659;41.622;2.276;2023-03-23T03:51:00;99643.58;;;8.65;65.70
62592;BME280;48659;41.622;2.276;2023-03-23T03:53:28;99651.41;;;8.65;65.95
62592;BME280;48659;41.622;2.276;2023-03-23T03:55:56;99644.59;;;9.40;62.45
62592;BME280;48659;41.622;2.276;2023-03-23T03:58:24;99657.47;;;8.34;66.00
62592;BME280;48659;41.622;2.276;2023-03-23T04:00:52;99668.04;;;7.92;68.11
62592;BME280;48659;41.622;2.276;2023-03-23T04:03:21;99660.52;;;9.65;64.75
62592;BME280;48659;41.622;2.276;2023-03-23T04:05:49;99669.17;;;7.69;69.93
62592;BME280;48659;41.622;2.276;2023-03-23T04:08:16;99672.03;;;8.17;71.39
62592;BME280;48659;41.622;2.276;2023-03-23T04:10:43;99672.21;;;8.50;68.29
62592;BME280;48659;41.622;2.276;2023-03-23T04:13:10;99671.19;;;8.39;67.76
62592;BME280;48659;41.622;2.276;2023-03-23T04:15:38;99659.68;;;9.46;66.36
62592;BME280;48659;41.622;2.276;2023-03-23T04:18:06;99659.38;;;10.05;60.59
62592;BME280;48659;41.622;2.276;2023-03-23T04:20:34;99649.86;;;12.00;57.56
62592;BME280;48659;41.622;2.276;2023-03-23T04:23:02;99653.22;;;11.76;57.15
62592;BME280;48659;41.622;2.276;2023-03-23T04:25:29;99654.52;;;12.88;54.90
62592;BME280;48659;41.622;2.276;2023-03-23T04:27:56;99656.58;;;12.51;55.25
62592;BME280;48659;41.622;2.276;2023-03-23T04:30:25;99654.47;;;11.97;56.31
62592;BME280;48659;41.622;2.276;2023-03-23T04:32:53;99649.45;;;12.88;54.55
62592;BME280;48659;41.622;2.276;2023-03-23T04:35:22;99646.28;;;11.73;56.34
62592;BME280;48659;41.622;2.276;2023-03-23T04:37:50;99650.08;;;12.08;55.69
62592;BME280;48659;41.622;2.276;2023-03-23T04:40:18;99654.51;;;11.12;59.24
62592;BME280;48659;41.622;2.276;2023-03-23T04:42:46;99654.64;;;9.86;61.89
62592;BME280;48659;41.622;2.276;2023-03-23T04:45:15;99652.05;;;9.34;64.56
62592;BME280;48659;41.622;2.276;2023-03-23T04:47:43;99659.71;;;8.52;68.77
62592;BME280;48659;41.622;2.276;2023-03-23T04:50:12;99657.40;;;7.07;70.71
62592;BME280;48659;41.622;2.276;2023-03-23T04:52:39;99652.09;;;7.37;73.40
62592;BME280;48659;41.622;2.276;2023-03-23T04:55:08;99657.04;;;8.14;71.72
62592;BME280;48659;41.622;2.276;2023-03-23T04:57:36;99662.78;;;8.67;70.37
62592;BME280;48659;41.622;2.276;2023-03-23T05:00:05;99658.93;;;7.64;70.74
62592;BME280;48659;41.622;2.276;2023-03-23T05:02:33;99662.06;;;8.66;68.84
62592;BME280;48659;41.622;2.276;2023-03-23T05:05:01;99650.72;;;8.82;65.09
62592;BME280;48659;41.622;2.276;2023-03-23T05:07:29;99650.32;;;10.44;61.32
62592;BME280;48659;41.622;2.276;2023-03-23T05:09:57;99647.45;;;11.04;58.01
62592;BME280;48659;41.622;2.276;2023-03-23T05:12:24;99645.16;;;12.67;55.00
62592;BME280;48659;41.622;2.276;2023-03-23T05:14:57;99650.66;;;12.30;53.98
62592;BME280;48659;41.622;2.276;2023-03-23T05:17:25;99653.31;;;12.36;54.26
62592;BME280;48659;41.622;2.276;2023-03-23T05:19:58;99657.72;;;12.20;53.88
62592;BME280;48659;41.622;2.276;2023-03-23T05:22:27;99663.03;;;13.18;52.55
62592;BME280;48659;41.622;2.276;2023-03-23T05:24:58;99658.95;;;12.84;52.34
62592;BME280;48659;41.622;2.276;2023-03-23T05:27:25;99653.35;;;13.22;52.18
62592;BME280;48659;41.622;2.276;2023-03-23T05:29:53;99656.05;;;11.72;56.20
62592;BME280;48659;41.622;2.276;2023-03-23T05:32:21;99655.98;;;13.14;53.62
62592;BME280;48659;41.622;2.276;2023-03-23T05:34:49;99658.52;;;13.09;53.87
62592;BME280;48659;41.622;2.276;2023-03-23T05:37:17;99662.11;;;12.92;54.77
62592;BME280;48659;41.622;2.276;2023-03-23T05:39:44;99657.51;;;12.72;55.58
62592;BME280;48659;41.622;2.276;2023-03-23T05:42:12;99658.95;;;12.99;54.65
62592;BME280;48659;41.622;2.276;2023-03-23T05:44:39;99654.72;;;13.33;54.77
62592;BME280;48659;41.622;2.276;2023-03-23T05:47:07;99658.12;;;12.15;55.21
62592;BME280;48659;41.622;2.276;2023-03-23T05:49:35;99661.76;;;13.51;54.70
62592;BME280;48659;41.622;2.276;2023-03-23T05:52:02;99658.92;;;12.94;55.01
62592;BME280;48659;41.622;2.276;2023-03-23T05:54:29;99663.42;;;12.87;55.77
62592;BME280;48659;41.622;2.276;2023-03-23T05:56:56;99661.47;;;13.04;54.55
62592;BME280;48659;41.622;2.276;2023-03-23T05:59:24;99662.21;;;13.27;55.17
62592;BME280;48659;41.622;2.276;2023-03-23T06:01:52;99656.18;;;13.26;54.84
62592;BME280;48659;41.622;2.276;2023-03-23T06:04:20;99653.76;;;13.30;54.87
62592;BME280;48659;41.622;2.276;2023-03-23T06:06:48;99656.13;;;13.37;55.61
62592;BME280;48659;41.622;2.276;2023-03-23T06:09:16;99660.48;;;13.31;56.00
62592;BME280;48659;41.622;2.276;2023-03-23T06:11:43;99662.79;;;11.97;58.52
62592;BME280;48659;41.622;2.276;2023-03-23T06:14:11;99669.49;;;9.99;64.18
62592;BME280;48659;41.622;2.276;2023-03-23T06:16:38;99672.61;;;10.11;64.47
62592;BME280;48659;41.622;2.276;2023-03-23T06:19:06;99677.60;;;10.10;64.69
62592;BME280;48659;41.622;2.276;2023-03-23T06:21:34;99678.35;;;10.92;61.71
62592;BME280;48659;41.622;2.276;2023-03-23T06:24:02;99677.85;;;11.16;60.17
62592;BME280;48659;41.622;2.276;2023-03-23T06:26:34;99677.48;;;12.52;58.05
62592;BME280;48659;41.622;2.276;2023-03-23T06:29:03;99683.08;;;11.98;59.90
62592;BME280;48659;41.622;2.276;2023-03-23T06:31:33;99683.35;;;11.18;60.35
62592;BME280;48659;41.622;2.276;2023-03-23T06:34:01;99681.31;;;9.70;62.58
62592;BME280;48659;41.622;2.276;2023-03-23T06:36:29;99686.69;;;10.55;63.40
62592;BME280;48659;41.622;2.276;2023-03-23T06:38:57;99678.69;;;9.69;65.14
62592;BME280;48659;41.622;2.276;2023-03-23T06:41:24;99662.99;;;12.61;58.01
62592;BME280;48659;41.622;2.276;2023-03-23T06:43:52;99672.72;;;12.26;57.56
62592;BME280;48659;41.622;2.276;2023-03-23T06:46:19;99687.32;;;11.68;59.53
62592;BME280;48659;41.622;2.276;2023-03-23T06:48:47;99685.22;;;12.76;56.86
62592;BME280;48659;41.622;2.276;2023-03-23T06:51:15;99688.28;;;12.19;56.66
62592;BME280;48659;41.622;2.276;2023-03-23T06:53:42;99696.71;;;12.44;56.27
62592;BME280;48659;41.622;2.276;2023-03-23T06:56:10;99694.94;;;13.17;54.56
62592;BME280;48659;41.622;2.276;2023-03-23T06:58:37;99701.07;;;12.95;54.85
62592;BME280;48659;41.622;2.276;2023-03-23T07:01:06;99697.28;;;13.50;53.81
62592;BME280;48659;41.622;2.276;2023-03-23T07:03:33;99694.03;;;13.45;53.58
62592;BME280;48659;41.622;2.276;2023-03-23T07:06:00;99688.37;;;13.82;53.17
62592;BME280;48659;41.622;2.276;2023-03-23T07:08:28;99686.87;;;14.20;52.21
62592;BME280;48659;41.622;2.276;2023-03-23T07:10:56;99695.48;;;13.31;52.75
62592;BME280;48659;41.622;2.276;2023-03-23T07:13:24;99697.85;;;13.87;52.04
62592;BME280;48659;41.622;2.276;2023-03-23T07:15:58;99696.51;;;13.67;51.11
62592;BME280;48659;41.622;2.276;2023-03-23T07:18:26;99696.51;;;13.93;52.45
62592;BME280;48659;41.622;2.276;2023-03-23T07:20:53;99697.45;;;14.59;52.02
62592;BME280;48659;41.622;2.276;2023-03-23T07:23:21;99693.89;;;13.98;52.17
62592;BME280;48659;41.622;2.276;2023-03-23T07:25:50;99695.19;;;14.85;51.84
62592;BME280;48659;41.622;2.276;2023-03-23T07:28:18;99696.03;;;14.82;50.92
62592;BME280;48659;41.622;2.276;2023-03-23T07:30:45;99695.26;;;14.73;52.01
62592;BME280;48659;41.622;2.276;2023-03-23T07:33:13;99696.00;;;14.68;52.15
62592;BME280;48659;41.622;2.276;2023-03-23T07:35:40;99695.79;;;15.22;51.95
62592;BME280;48659;41.622;2.276;2023-03-23T07:38:07;99702.81;;;13.27;54.58
62592;BME280;48659;41.622;2.276;2023-03-23T07:40:34;99705.77;;;12.59;57.09
62592;BME280;48659;41.622;2.276;2023-03-23T07:43:03;99703.36;;;14.82;53.23
62592;BME280;48659;41.622;2.276;2023-03-23T07:45:31;99703.59;;;14.94;53.25
62592;BME280;48659;41.622;2.276;2023-03-23T07:47:59;99704.11;;;14.27;52.97
62592;BME280;48659;41.622;2.276;2023-03-23T07:50:26;99709.37;;;15.29;51.81
62592;BME280;48659;41.622;2.276;2023-03-23T07:52:55;99705.26;;;14.60;51.31
62592;BME280;48659;41.622;2.276;2023-03-23T07:55:24;99701.85;;;16.08;50.36
62592;BME280;48659;41.622;2.276;2023-03-23T07:57:53;99708.64;;;15.32;51.49
62592;BME280;48659;41.622;2.276;2023-03-23T08:00:22;99710.90;;;15.49;51.36
62592;BME280;48659;41.622;2.276;2023-03-23T08:02:52;99710.75;;;16.15;50.37
62592;BME280;48659;41.622;2.276;2023-03-23T08:05:20;99716.31;;;15.21;52.75
62592;BME280;48659;41.622;2.276;2023-03-23T08:07:48;99720.40;;;15.34;51.63
62592;BME280;48659;41.622;2.276;2023-03-23T08:10:17;99721.09;;;15.01;51.14
62592;BME280;48659;41.622;2.276;2023-03-23T08:12:45;99720.27;;;15.86;51.30
62592;BME280;48659;41.622;2.276;2023-03-23T08:15:13;99720.55;;;15.75;51.65
62592;BME280;48659;41.622;2.276;2023-03-23T08:17:42;99725.00;;;15.72;51.76
62592;BME280;48659;41.622;2.276;2023-03-23T08:20:10;99724.33;;;14.55;52.99
62592;BME280;48659;41.622;2.276;2023-03-23T08:22:40;99722.28;;;15.35;51.58
62592;BME280;48659;41.622;2.276;2023-03-23T08:25:10;99725.25;;;14.50;54.41
62592;BME280;48659;41.622;2.276;2023-03-23T08:27:39;99726.37;;;14.24;54.53
62592;BME280;48659;41.622;2.276;2023-03-23T08:30:07;99724.80;;;15.31;51.84
62592;BME280;48659;41.622;2.276;2023-03-23T08:32:36;99723.56;;;16.40;49.69
62592;BME280;48659;41.622;2.276;2023-03-23T08:35:04;99727.12;;;15.07;51.43
62592;BME280;48659;41.622;2.276;2023-03-23T08:37:31;99732.30;;;16.11;49.70
62592;BME280;48659;41.622;2.276;2023-03-23T08:39:59;99732.99;;;15.62;50.02
62592;BME280;48659;41.622;2.276;2023-03-23T08:42:26;99732.71;;;16.29;49.20
62592;BME280;48659;41.622;2.276;2023-03-23T08:44:53;99731.75;;;16.21;48.93
62592;BME280;48659;41.622;2.276;2023-03-23T08:47:21;99734.00;;;14.94;49.74
62592;BME280;48659;41.622;2.276;2023-03-23T08:49:49;99736.00;;;15.50;50.97
62592;BME280;48659;41.622;2.276;2023-03-23T08:52:16;99739.49;;;15.95;50.66
62592;BME280;48659;41.622;2.276;2023-03-23T08:54:44;99739.52;;;16.57;49.12
62592;BME280;48659;41.622;2.276;2023-03-23T08:57:11;99747.27;;;15.92;49.85
62592;BME280;48659;41.622;2.276;2023-03-23T08:59:39;99743.98;;;16.83;48.13
62592;BME280;48659;41.622;2.276;2023-03-23T09:02:08;99747.45;;;16.07;47.27
62592;BME280;48659;41.622;2.276;2023-03-23T09:04:36;99750.34;;;16.11;49.62
62592;BME280;48659;41.622;2.276;2023-03-23T09:07:04;99749.41;;;16.36;48.41
62592;BME280;48659;41.622;2.276;2023-03-23T09:09:32;99751.73;;;16.90;47.95
62592;BME280;48659;41.622;2.276;2023-03-23T09:11:59;99757.83;;;17.20;46.33
62592;BME280;48659;41.622;2.276;2023-03-23T09:14:27;99759.97;;;15.85;49.84
62592;BME280;48659;41.622;2.276;2023-03-23T09:16:54;99758.19;;;16.47;47.86
62592;BME280;48659;41.622;2.276;2023-03-23T09:19:21;99762.59;;;17.55;46.27
62592;BME280;48659;41.622;2.276;2023-03-23T09:21:50;99761.21;;;16.80;46.94
62592;BME280;48659;41.622;2.276;2023-03-23T09:24:17;99765.13;;;15.49;50.06
62592;BME280;48659;41.622;2.276;2023-03-23T09:26:45;99758.51;;;17.16;46.76
62592;BME280;48659;41.622;2.276;2023-03-23T09:29:13;99754.47;;;17.16;46.89
62592;BME280;48659;41.622;2.276;2023-03-23T09:31:40;99753.57;;;16.27;49.89
62592;BME280;48659;41.622;2.276;2023-03-23T09:34:09;99754.05;;;16.85;47.98
62592;BME280;48659;41.622;2.276;2023-03-23T09:36:36;99756.88;;;15.79;48.26
62592;BME280;48659;41.622;2.276;2023-03-23T09:39:03;99756.44;;;16.13;48.16
62592;BME280;48659;41.622;2.276;2023-03-23T09:41:42;99754.36;;;15.39;49.96
62592;BME280;48659;41.622;2.276;2023-03-23T09:44:18;99753.78;;;14.58;52.26
62592;BME280;48659;41.622;2.276;2023-03-23T09:46:58;99746.46;;;16.67;48.43
62592;BME280;48659;41.622;2.276;2023-03-23T09:49:32;99751.47;;;16.16;49.00
62592;BME280;48659;41.622;2.276;2023-03-23T09:52:03;99753.40;;;17.45;44.94
62592;BME280;48659;41.622;2.276;2023-03-23T09:54:35;99749.64;;;17.98;44.72
62592;BME280;48659;41.622;2.276;2023-03-23T09:57:22;99746.38;;;18.03;44.00
62592;BME280;48659;41.622;2.276;2023-03-23T09:59:55;99744.81;;;18.08;43.96
62592;BME280;48659;41.622;2.276;2023-03-23T10:02:31;99743.37;;;18.23;43.36
62592;BME280;48659;41.622;2.276;2023-03-23T10:05:23;99745.16;;;17.87;42.36
62592;BME280;48659;41.622;2.276;2023-03-23T10:07:53;99738.17;;;18.87;41.12
62592;BME280;48659;41.622;2.276;2023-03-23T10:10:26;99737.84;;;18.79;41.70
62592;BME280;48659;41.622;2.276;2023-03-23T10:13:01;99743.58;;;16.81;44.33
62592;BME280;48659;41.622;2.276;2023-03-23T10:15:33;99746.15;;;18.21;42.52
62592;BME280;48659;41.622;2.276;2023-03-23T10:18:08;99741.05;;;18.08;41.82
62592;BME280;48659;41.622;2.276;2023-03-23T10:20:43;99741.20;;;18.40;42.13
62592;BME280;48659;41.622;2.276;2023-03-23T10:23:22;99745.17;;;17.59;42.74
62592;BME280;48659;41.622;2.276;2023-03-23T10:25:57;99735.45;;;18.68;40.82
62592;BME280;48659;41.622;2.276;2023-03-23T10:28:36;99731.25;;;18.81;40.07
62592;BME280;48659;41.622;2.276;2023-03-23T10:31:07;99736.49;;;17.97;40.65
62592;BME280;48659;41.622;2.276;2023-03-23T10:33:40;99730.28;;;18.90;39.81
62592;BME280;48659;41.622;2.276;2023-03-23T10:36:12;99729.15;;;19.22;39.32
62592;BME280;48659;41.622;2.276;2023-03-23T10:38:45;99727.03;;;18.54;40.58
62592;BME280;48659;41.622;2.276;2023-03-23T10:41:16;99735.76;;;17.75;42.10
62592;BME280;48659;41.622;2.276;2023-03-23T10:43:46;99732.50;;;16.72;44.59
62592;BME280;48659;41.622;2.276;2023-03-23T10:46:25;99725.73;;;19.14;40.53
62592;BME280;48659;41.622;2.276;2023-03-23T10:49:02;99734.04;;;16.78;44.52
62592;BME280;48659;41.622;2.276;2023-03-23T10:51:36;99735.40;;;17.93;44.01
62592;BME280;48659;41.622;2.276;2023-03-23T10:54:05;99727.49;;;18.81;41.07
62592;BME280;48659;41.622;2.276;2023-03-23T10:56:37;99727.56;;;17.26;44.49
62592;BME280;48659;41.622;2.276;2023-03-23T10:59:14;99728.94;;;17.43;45.02
62592;BME280;48659;41.622;2.276;2023-03-23T11:01:45;99725.37;;;19.31;41.63
62592;BME280;48659;41.622;2.276;2023-03-23T11:04:16;99722.99;;;18.26;42.07
62592;BME280;48659;41.622;2.276;2023-03-23T11:06:46;99719.73;;;19.76;41.53
62592;BME280;48659;41.622;2.276;2023-03-23T11:09:17;99714.31;;;20.63;39.98
62592;BME280;48659;41.622;2.276;2023-03-23T11:11:49;99722.59;;;16.50;47.21
62592;BME280;48659;41.622;2.276;2023-03-23T11:14:20;99717.75;;;17.96;45.60
62592;BME280;48659;41.622;2.276;2023-03-23T11:16:53;99713.11;;;18.87;43.94
62592;BME280;48659;41.622;2.276;2023-03-23T11:19:24;99716.97;;;17.69;46.16
62592;BME280;48659;41.622;2.276;2023-03-23T11:21:54;99713.87;;;18.58;44.82
62592;BME280;48659;41.622;2.276;2023-03-23T11:24:23;99712.55;;;20.18;41.12
62592;BME280;48659;41.622;2.276;2023-03-23T11:26:53;99711.53;;;19.80;42.00
62592;BME280;48659;41.622;2.276;2023-03-23T11:29:25;99707.59;;;18.61;43.47
62592;BME280;48659;41.622;2.276;2023-03-23T11:32:02;99701.14;;;18.71;42.32
62592;BME280;48659;41.622;2.276;2023-03-23T11:34:33;99708.57;;;16.41;47.86
62592;BME280;48659;41.622;2.276;2023-03-23T11:37:03;99698.03;;;19.05;43.37
62592;BME280;48659;41.622;2.276;2023-03-23T11:39:47;99695.61;;;19.73;42.25
62592;BME280;48659;41.622;2.276;2023-03-23T11:42:20;99695.95;;;18.62;42.96
62592;BME280;48659;41.622;2.276;2023-03-23T11:44:48;99692.25;;;18.52;44.34
62592;BME280;48659;41.622;2.276;2023-03-23T11:47:30;99688.01;;;18.13;45.04
62592;BME280;48659;41.622;2.276;2023-03-23T11:50:04;99687.14;;;17.92;46.43
62592;BME280;48659;41.622;2.276;2023-03-23T11:52:41;99679.20;;;18.22;45.52
62592;BME280;48659;41.622;2.276;2023-03-23T11:55:14;99674.54;;;18.06;45.27
62592;BME280;48659;41.622;2.276;2023-03-23T11:57:42;99675.10;;;18.85;45.15
62592;BME280;48659;41.622;2.276;2023-03-23T12:00:14;99673.59;;;18.24;43.91
62592;BME280;48659;41.622;2.276;2023-03-23T12:02:48;99678.85;;;16.72;48.97
62592;BME280;48659;41.622;2.276;2023-03-23T12:05:30;99677.29;;;16.59;49.05
62592;BME280;48659;41.622;2.276;2023-03-23T12:08:11;99677.90;;;17.05;49.33
62592;BME280;48659;41.622;2.276;2023-03-23T12:10:46;99665.98;;;19.00;45.08
62592;BME280;48659;41.622;2.276;2023-03-23T12:13:28;99668.17;;;18.18;45.45
62592;BME280;48659;41.622;2.276;2023-03-23T12:16:05;99666.40;;;19.60;42.64
62592;BME280;48659;41.622;2.276;2023-03-23T12:18:45;99658.87;;;19.37;42.70
62592;BME280;48659;41.622;2.276;2023-03-23T12:21:23;99659.89;;;18.39;44.71
62592;BME280;48659;41.622;2.276;2023-03-23T12:24:00;99654.98;;;19.85;43.23
62592;BME280;48659;41.622;2.276;2023-03-23T12:26:31;99643.32;;;20.64;40.43
62592;BME280;48659;41.622;2.276;2023-03-23T12:29:31;99643.10;;;19.45;40.74
62592;BME280;48659;41.622;2.276;2023-03-23T12:32:24;99637.41;;;19.14;42.18
62592;BME280;48659;41.622;2.276;2023-03-23T12:35:02;99640.34;;;17.53;46.45
62592;BME280;48659;41.622;2.276;2023-03-23T12:37:42;99633.74;;;18.98;45.00
62592;BME280;48659;41.622;2.276;2023-03-23T12:40:29;99635.39;;;17.96;45.85
62592;BME280;48659;41.622;2.276;2023-03-23T12:43:01;99626.69;;;18.42;44.57
62592;BME280;48659;41.622;2.276;2023-03-23T12:45:48;99628.90;;;18.71;44.68
62592;BME280;48659;41.622;2.276;2023-03-23T12:48:23;99625.56;;;18.45;43.89
62592;BME280;48659;41.622;2.276;2023-03-23T12:51:08;99616.68;;;19.93;41.83
62592;BME280;48659;41.622;2.276;2023-03-23T12:53:41;99617.30;;;20.08;40.05
62592;BME280;48659;41.622;2.276;2023-03-23T12:56:16;99613.15;;;18.86;42.63
62592;BME280;48659;41.622;2.276;2023-03-23T12:58:46;99612.70;;;18.92;42.92
62592;BME280;48659;41.622;2.276;2023-03-23T13:01:18;99610.39;;;19.05;42.67
62592;BME280;48659;41.622;2.276;2023-03-23T13:03:52;99610.94;;;19.44;42.66
62592;BME280;48659;41.622;2.276;2023-03-23T13:06:27;99612.78;;;18.71;43.61
62592;BME280;48659;41.622;2.276;2023-03-23T13:09:01;99607.28;;;19.43;42.95
62592;BME280;48659;41.622;2.276;2023-03-23T13:11:32;99603.85;;;19.68;42.34
62592;BME280;48659;41.622;2.276;2023-03-23T13:14:18;99602.80;;;18.52;43.73
62592;BME280;48659;41.622;2.276;2023-03-23T13:16:57;99595.00;;;19.89;42.72
62592;BME280;48659;41.622;2.276;2023-03-23T13:19:59;99595.34;;;18.94;44.74